createdAt,value
2023-04-16T00:00:52.532Z,100.00
2023-04-16T00:03:19.134Z,100.00
2023-04-16T00:05:45.789Z,100.00
2023-04-16T00:08:12.397Z,100.00
2023-04-16T00:10:38.697Z,100.00
2023-04-16T00:13:05.091Z,100.00
2023-04-16T00:15:31.438Z,100.00
2023-04-16T00:17:57.804Z,100.00
2023-04-16T00:20:24.159Z,100.00
2023-04-16T00:22:51.031Z,100.00
2023-04-16T00:25:17.312Z,100.00
2023-04-16T00:27:43.649Z,100.00
2023-04-16T00:30:10.090Z,100.00
2023-04-16T00:32:36.435Z,100.00
2023-04-16T00:35:02.778Z,100.00
2023-04-16T00:37:29.118Z,100.00
2023-04-16T00:39:55.462Z,100.00
2023-04-16T00:42:21.756Z,100.00
2023-04-16T00:44:48.061Z,100.00
2023-04-16T00:47:14.372Z,100.00
2023-04-16T00:49:40.672Z,100.00
2023-04-16T00:52:06.959Z,100.00
2023-04-16T00:54:33.286Z,100.00
2023-04-16T00:56:59.684Z,100.00
2023-04-16T00:59:26.464Z,100.00
2023-04-16T01:01:53.037Z,100.00
2023-04-16T01:04:19.613Z,100.00
2023-04-16T01:06:45.986Z,100.00
2023-04-16T01:09:12.280Z,100.00
2023-04-16T01:11:39.674Z,100.00
2023-04-16T01:14:06.061Z,100.00
2023-04-16T01:16:32.360Z,100.00
2023-04-16T01:18:58.637Z,100.00
2023-04-16T01:21:24.958Z,100.00
2023-04-16T01:23:51.361Z,100.00
2023-04-16T01:26:17.660Z,100.00
2023-04-16T01:28:44.008Z,100.00
2023-04-16T01:31:10.392Z,100.00
2023-04-16T01:33:36.815Z,100.00
2023-04-16T01:36:03.241Z,100.00
2023-04-16T01:38:29.527Z,100.00
2023-04-16T01:40:57.132Z,100.00
2023-04-16T01:43:23.466Z,100.00
2023-04-16T01:45:49.807Z,100.00
2023-04-16T01:48:16.111Z,100.00
2023-04-16T01:50:42.409Z,100.00
2023-04-16T01:53:09.598Z,100.00
2023-04-16T01:55:36.147Z,100.00
2023-04-16T01:58:02.761Z,100.00
2023-04-16T02:00:29.089Z,100.00
2023-04-16T02:02:55.636Z,100.00
2023-04-16T02:05:22.131Z,100.00
2023-04-16T02:07:48.399Z,100.00
2023-04-16T02:10:14.715Z,100.00
2023-04-16T02:12:41.048Z,100.00
2023-04-16T02:15:07.688Z,100.00
2023-04-16T02:17:34.044Z,100.00
2023-04-16T02:20:02.829Z,100.00
2023-04-16T02:22:29.285Z,100.00
2023-04-16T02:24:55.803Z,100.00
2023-04-16T02:27:24.640Z,100.00
2023-04-16T02:29:51.008Z,100.00
2023-04-16T02:32:17.470Z,100.00
2023-04-16T02:34:43.974Z,100.00
2023-04-16T02:37:10.258Z,100.00
2023-04-16T02:39:36.729Z,100.00
2023-04-16T02:42:03.099Z,100.00
2023-04-16T02:44:29.415Z,100.00
2023-04-16T02:46:55.792Z,100.00
2023-04-16T02:49:22.314Z,100.00
2023-04-16T02:51:48.610Z,100.00
2023-04-16T02:54:14.932Z,100.00
2023-04-16T02:56:41.474Z,100.00
2023-04-16T02:59:08.180Z,100.00
2023-04-16T03:01:34.658Z,100.00
2023-04-16T03:04:01.038Z,100.00
2023-04-16T03:06:27.492Z,100.00
2023-04-16T03:09:09.614Z,100.00
2023-04-16T03:11:36.124Z,100.00
2023-04-16T03:14:02.538Z,100.00
2023-04-16T03:16:28.847Z,100.00
2023-04-16T03:18:55.138Z,100.00
2023-04-16T03:21:21.440Z,100.00
2023-04-16T03:23:47.828Z,100.00
2023-04-16T03:26:14.149Z,100.00
2023-04-16T03:28:40.576Z,100.00
2023-04-16T03:31:06.946Z,100.00
2023-04-16T03:33:33.288Z,100.00
2023-04-16T03:35:59.664Z,100.00
2023-04-16T03:38:31.277Z,100.00
2023-04-16T03:40:57.603Z,100.00
2023-04-16T03:43:23.932Z,100.00
2023-04-16T03:45:53.411Z,100.00
2023-04-16T03:48:19.742Z,100.00
2023-04-16T03:50:47.479Z,100.00
2023-04-16T03:53:13.970Z,100.00
2023-04-16T03:55:40.843Z,100.00
2023-04-16T03:58:07.128Z,100.00
2023-04-16T04:00:33.448Z,100.00
2023-04-16T04:03:00.099Z,100.00
2023-04-16T04:05:26.571Z,100.00
2023-04-16T04:07:52.950Z,100.00
2023-04-16T04:10:19.257Z,100.00
2023-04-16T04:12:45.730Z,100.00
2023-04-16T04:15:12.182Z,100.00
2023-04-16T04:17:38.688Z,100.00
2023-04-16T04:20:05.332Z,100.00
2023-04-16T04:22:31.765Z,100.00
2023-04-16T04:24:58.129Z,100.00
2023-04-16T04:27:24.492Z,100.00
2023-04-16T04:29:50.879Z,100.00
2023-04-16T04:32:17.227Z,100.00
2023-04-16T04:34:43.546Z,100.00
2023-04-16T04:37:09.847Z,100.00
2023-04-16T04:39:36.153Z,100.00
2023-04-16T04:42:03.202Z,100.00
2023-04-16T04:44:29.536Z,100.00
2023-04-16T04:46:56.252Z,100.00
2023-04-16T04:49:22.548Z,100.00
2023-04-16T04:51:48.940Z,100.00
2023-04-16T04:54:15.629Z,100.00
2023-04-16T04:56:47.269Z,100.00
2023-04-16T04:59:13.609Z,100.00
2023-04-16T05:01:39.935Z,100.00
2023-04-16T05:04:06.457Z,100.00
2023-04-16T05:06:32.832Z,100.00
2023-04-16T05:08:59.191Z,100.00
2023-04-16T05:11:25.747Z,100.00
2023-04-16T05:13:52.129Z,100.00
2023-04-16T05:16:18.570Z,100.00
2023-04-16T05:18:44.893Z,100.00
2023-04-16T05:21:11.196Z,100.00
2023-04-16T05:23:37.502Z,100.00
2023-04-16T05:26:03.792Z,100.00
2023-04-16T05:28:30.410Z,100.00
2023-04-16T05:30:56.712Z,100.00
2023-04-16T05:33:23.078Z,100.00
2023-04-16T05:35:49.498Z,100.00
2023-04-16T05:38:15.808Z,100.00
2023-04-16T05:40:42.141Z,100.00
2023-04-16T05:43:08.453Z,100.00
2023-04-16T05:45:39.533Z,100.00
2023-04-16T05:48:06.144Z,100.00
2023-04-16T05:50:32.470Z,100.00
2023-04-16T05:52:58.846Z,100.00
2023-04-16T05:55:25.500Z,100.00
2023-04-16T05:57:51.893Z,100.00
2023-04-16T06:00:18.259Z,100.00
2023-04-16T06:02:44.853Z,100.00
2023-04-16T06:05:11.380Z,100.00
2023-04-16T06:07:37.669Z,100.00
2023-04-16T06:10:04.056Z,100.00
2023-04-16T06:12:30.969Z,100.00
2023-04-16T06:14:57.262Z,100.00
2023-04-16T06:17:23.679Z,100.00
2023-04-16T06:19:50.099Z,100.00
2023-04-16T06:22:16.388Z,100.00
2023-04-16T06:24:42.694Z,100.00
2023-04-16T06:27:09.012Z,100.00
2023-04-16T06:29:41.248Z,100.00
2023-04-16T06:32:08.292Z,100.00
2023-04-16T06:34:34.604Z,100.00
2023-04-16T06:37:03.458Z,100.00
2023-04-16T06:39:30.009Z,100.00
2023-04-16T06:41:56.358Z,100.00
2023-04-16T06:44:22.655Z,100.00
2023-04-16T06:46:49.057Z,100.00
2023-04-16T06:49:15.781Z,100.00
2023-04-16T06:51:42.101Z,100.00
2023-04-16T06:54:08.395Z,100.00
2023-04-16T06:56:36.507Z,100.00
2023-04-16T06:59:03.333Z,100.00
2023-04-16T07:01:31.187Z,100.00
2023-04-16T07:03:58.157Z,100.00
2023-04-16T07:06:24.619Z,100.00
2023-04-16T07:08:50.899Z,100.00
2023-04-16T07:11:17.781Z,100.00
2023-04-16T07:13:44.152Z,100.00
2023-04-16T07:16:10.553Z,100.00
2023-04-16T07:18:36.953Z,100.00
2023-04-16T07:21:03.753Z,100.00
2023-04-16T07:23:30.234Z,100.00
2023-04-16T07:25:56.663Z,100.00
2023-04-16T07:28:24.427Z,100.00
2023-04-16T07:30:50.832Z,100.00
2023-04-16T07:33:17.210Z,100.00
2023-04-16T07:35:43.781Z,100.00
2023-04-16T07:38:10.235Z,100.00
2023-04-16T07:40:36.700Z,100.00
2023-04-16T07:43:03.014Z,100.00
2023-04-16T07:45:29.350Z,100.00
2023-04-16T07:47:56.512Z,100.00
2023-04-16T07:50:22.935Z,100.00
2023-04-16T07:52:49.288Z,100.00
2023-04-16T07:55:15.722Z,100.00
2023-04-16T07:57:42.051Z,100.00
2023-04-16T08:00:08.834Z,100.00
2023-04-16T08:02:35.440Z,100.00
2023-04-16T08:05:02.035Z,100.00
2023-04-16T08:07:28.407Z,100.00
2023-04-16T08:09:54.924Z,100.00
2023-04-16T08:12:21.598Z,100.00
2023-04-16T08:14:48.052Z,100.00
2023-04-16T08:17:14.597Z,100.00
2023-04-16T08:19:41.688Z,100.00
2023-04-16T08:22:08.028Z,100.00
2023-04-16T08:24:34.383Z,100.00
2023-04-16T08:27:11.505Z,100.00
2023-04-16T08:29:43.958Z,100.00
2023-04-16T08:32:10.295Z,100.00
2023-04-16T08:34:37.065Z,100.00
2023-04-16T08:37:03.498Z,100.00
2023-04-16T08:39:29.805Z,100.00
2023-04-16T08:41:56.148Z,100.00
2023-04-16T08:44:26.763Z,100.00
2023-04-16T08:46:57.206Z,100.00
2023-04-16T08:49:23.594Z,100.00
2023-04-16T08:51:51.719Z,100.00
2023-04-16T08:54:25.403Z,100.00
2023-04-16T08:56:51.706Z,100.00
2023-04-16T08:59:18.068Z,100.00
2023-04-16T09:01:45.468Z,100.00
2023-04-16T09:04:12.034Z,100.00
2023-04-16T09:06:38.691Z,100.00
2023-04-16T09:09:04.984Z,100.00
2023-04-16T09:11:31.281Z,100.00
2023-04-16T09:13:57.607Z,100.00
2023-04-16T09:16:24.674Z,100.00
2023-04-16T09:18:51.904Z,100.00
2023-04-16T09:21:18.265Z,100.00
2023-04-16T09:23:44.829Z,100.00
2023-04-16T09:26:11.343Z,100.00
2023-04-16T09:28:44.026Z,100.00
2023-04-16T09:31:11.166Z,100.00
2023-04-16T09:33:37.697Z,100.00
2023-04-16T09:36:04.139Z,100.00
2023-04-16T09:38:46.006Z,100.00
2023-04-16T09:41:12.479Z,100.00
2023-04-16T09:43:38.944Z,100.00
2023-04-16T09:46:08.214Z,100.00
2023-04-16T09:48:35.011Z,100.00
2023-04-16T09:51:02.734Z,100.00
2023-04-16T09:53:31.064Z,100.00
2023-04-16T09:56:01.600Z,100.00
2023-04-16T09:58:28.798Z,100.00
2023-04-16T10:01:04.922Z,100.00
2023-04-16T10:03:40.341Z,100.00
2023-04-16T10:06:18.231Z,100.00
2023-04-16T10:08:49.673Z,100.00
2023-04-16T10:11:16.969Z,100.00
2023-04-16T10:13:45.908Z,100.00
2023-04-16T10:16:12.480Z,100.00
2023-04-16T10:18:40.621Z,100.00
2023-04-16T10:21:07.122Z,100.00
2023-04-16T10:23:33.791Z,100.00
2023-04-16T10:26:00.811Z,100.00
2023-04-16T10:28:30.540Z,100.00
2023-04-16T10:30:57.511Z,100.00
2023-04-16T10:33:25.465Z,100.00
2023-04-16T10:36:05.023Z,100.00
2023-04-16T10:38:33.674Z,100.00
2023-04-16T10:41:00.965Z,97.01
2023-04-16T10:43:28.441Z,98.83
2023-04-16T10:45:56.558Z,100.00
2023-04-16T10:48:27.468Z,87.17
2023-04-16T10:50:58.022Z,90.83
2023-04-16T10:53:26.520Z,99.81
2023-04-16T10:56:25.889Z,100.00
2023-04-16T10:58:56.334Z,100.00
2023-04-16T11:01:32.373Z,100.00
2023-04-16T11:04:05.146Z,100.00
2023-04-16T11:06:39.545Z,100.00
2023-04-16T11:09:05.937Z,100.00
2023-04-16T11:11:37.024Z,100.00
2023-04-16T11:14:06.073Z,100.00
2023-04-16T11:16:43.037Z,98.85
2023-04-16T11:19:19.306Z,86.83
2023-04-16T11:21:45.966Z,76.49
2023-04-16T11:24:12.333Z,75.42
2023-04-16T11:26:41.565Z,78.85
2023-04-16T11:29:18.805Z,83.26
2023-04-16T11:32:11.760Z,78.24
2023-04-16T11:34:46.524Z,76.22
2023-04-16T11:37:13.266Z,80.07
2023-04-16T11:39:49.945Z,76.64
2023-04-16T11:42:22.901Z,73.30
2023-04-16T11:44:53.480Z,70.97
2023-04-16T11:47:22.615Z,70.06
2023-04-16T11:49:51.100Z,78.17
2023-04-16T11:52:30.591Z,78.53
2023-04-16T11:54:58.518Z,87.07
2023-04-16T11:57:32.849Z,83.05
2023-04-16T12:00:01.378Z,77.80
2023-04-16T12:02:38.431Z,87.24
2023-04-16T12:05:12.519Z,86.98
2023-04-16T12:07:46.329Z,84.83
2023-04-16T12:10:14.858Z,91.36
2023-04-16T12:12:42.732Z,100.00
2023-04-16T12:15:09.564Z,100.00
2023-04-16T12:17:38.711Z,100.00
2023-04-16T12:20:12.560Z,100.00
2023-04-16T12:22:39.661Z,100.00
2023-04-16T12:25:08.203Z,100.00
2023-04-16T12:27:47.018Z,100.00
2023-04-16T12:30:16.065Z,100.00
2023-04-16T12:32:45.503Z,100.00
2023-04-16T12:35:28.147Z,100.00
2023-04-16T12:38:09.986Z,100.00
2023-04-16T12:40:44.065Z,100.00
2023-04-16T12:43:19.398Z,100.00
2023-04-16T12:48:53.131Z,100.00
2023-04-16T12:51:19.933Z,100.00
2023-04-16T12:54:03.287Z,100.00
2023-04-16T12:59:38.130Z,100.00
2023-04-16T13:02:05.804Z,100.00
2023-04-16T13:04:41.702Z,100.00
2023-04-16T13:07:26.118Z,100.00
2023-04-16T13:09:52.865Z,100.00
2023-04-16T13:12:22.869Z,100.00
2023-04-16T13:14:52.956Z,100.00
2023-04-16T13:20:06.938Z,100.00
2023-04-16T13:22:49.357Z,100.00
2023-04-16T13:25:16.583Z,100.00
2023-04-16T13:27:48.376Z,100.00
2023-04-16T13:30:17.187Z,100.00
2023-04-16T13:32:44.647Z,100.00
2023-04-16T13:35:12.147Z,100.00
2023-04-16T13:37:38.522Z,100.00
2023-04-16T13:40:05.124Z,100.00
2023-04-16T13:42:32.330Z,100.00
2023-04-16T13:44:58.864Z,100.00
2023-04-16T13:47:25.325Z,100.00
2023-04-16T13:49:51.713Z,100.00
2023-04-16T13:52:18.217Z,100.00
2023-04-16T13:54:44.720Z,100.00
2023-04-16T13:57:12.714Z,100.00
2023-04-16T13:59:39.052Z,100.00
2023-04-16T14:02:05.659Z,100.00
2023-04-16T14:04:33.932Z,100.00
2023-04-16T14:07:01.111Z,100.00
2023-04-16T14:09:27.718Z,100.00
2023-04-16T14:11:54.798Z,100.00
2023-04-16T14:14:21.153Z,100.00
2023-04-16T14:16:47.514Z,100.00
2023-04-16T14:19:14.478Z,100.00
2023-04-16T14:21:41.089Z,100.00
2023-04-16T14:24:09.927Z,100.00
2023-04-16T14:26:36.572Z,100.00
2023-04-16T14:29:03.070Z,99.79
2023-04-16T14:31:29.516Z,100.00
2023-04-16T14:33:56.061Z,100.00
2023-04-16T14:36:22.548Z,100.00
2023-04-16T14:38:48.926Z,100.00
2023-04-16T14:41:15.372Z,92.76
2023-04-16T14:43:42.201Z,84.58
2023-04-16T14:46:08.911Z,78.32
2023-04-16T14:48:35.582Z,81.02
2023-04-16T14:51:02.175Z,77.40
2023-04-16T14:53:29.014Z,71.93
2023-04-16T14:55:58.917Z,67.38
2023-04-16T14:58:25.893Z,67.95
2023-04-16T15:00:54.914Z,66.80
2023-04-16T15:03:22.793Z,69.55
2023-04-16T15:05:57.312Z,68.99
2023-04-16T15:08:23.866Z,72.77
2023-04-16T15:10:50.698Z,84.87
2023-04-16T15:13:19.090Z,80.07
2023-04-16T15:15:45.570Z,83.02
2023-04-16T15:18:11.988Z,81.98
2023-04-16T15:20:40.029Z,82.02
2023-04-16T15:23:06.516Z,85.74
2023-04-16T15:25:32.997Z,87.19
2023-04-16T15:27:59.396Z,92.23
2023-04-16T15:30:29.054Z,93.46
2023-04-16T15:32:56.027Z,96.02
2023-04-16T15:35:22.379Z,94.86
2023-04-16T15:37:48.855Z,96.05
2023-04-16T15:40:15.936Z,100.00
2023-04-16T15:42:43.108Z,100.00
2023-04-16T15:45:09.641Z,100.00
2023-04-16T15:47:36.281Z,100.00
2023-04-16T15:50:06.672Z,100.00
2023-04-16T15:52:33.080Z,100.00
2023-04-16T15:55:00.730Z,100.00
2023-04-16T15:57:27.979Z,100.00
2023-04-16T16:02:26.255Z,100.00
2023-04-16T16:04:53.001Z,100.00
2023-04-16T16:07:20.060Z,100.00
2023-04-16T16:09:47.908Z,100.00
2023-04-16T16:12:14.247Z,100.00
2023-04-16T16:14:40.847Z,100.00
2023-04-16T16:17:07.148Z,100.00
2023-04-16T16:19:33.506Z,100.00
2023-04-16T16:21:59.798Z,100.00
2023-04-16T16:24:26.439Z,100.00
2023-04-16T16:26:52.902Z,100.00
2023-04-16T16:29:19.548Z,100.00
2023-04-16T16:31:45.897Z,100.00
2023-04-16T16:34:19.890Z,100.00
2023-04-16T16:36:47.415Z,100.00
2023-04-16T16:39:13.738Z,100.00
2023-04-16T16:41:42.959Z,100.00
2023-04-16T16:44:09.266Z,100.00
2023-04-16T16:46:36.562Z,100.00
2023-04-16T16:49:05.145Z,100.00
2023-04-16T16:51:33.554Z,100.00
2023-04-16T16:53:59.890Z,100.00
2023-04-16T16:56:26.292Z,100.00
2023-04-16T16:58:52.600Z,100.00
2023-04-16T17:01:19.077Z,100.00
2023-04-16T17:03:45.628Z,100.00
2023-04-16T17:06:12.087Z,100.00
2023-04-16T17:08:38.516Z,100.00
2023-04-16T17:11:04.869Z,100.00
2023-04-16T17:13:32.648Z,100.00
2023-04-16T17:15:59.088Z,100.00
2023-04-16T17:18:25.383Z,100.00
2023-04-16T17:20:51.735Z,100.00
2023-04-16T17:23:18.030Z,100.00
2023-04-16T17:25:44.564Z,100.00
2023-04-16T17:28:10.885Z,100.00
2023-04-16T17:30:37.565Z,100.00
2023-04-16T17:33:04.645Z,100.00
2023-04-16T17:35:31.145Z,100.00
2023-04-16T17:37:57.607Z,100.00
2023-04-16T17:40:23.991Z,100.00
2023-04-16T17:42:51.257Z,100.00
2023-04-16T17:45:17.579Z,100.00
2023-04-16T17:47:46.885Z,100.00
2023-04-16T17:50:13.216Z,100.00
2023-04-16T17:52:39.552Z,100.00
2023-04-16T17:55:06.251Z,100.00
2023-04-16T17:57:32.576Z,100.00
2023-04-16T17:59:58.907Z,100.00
2023-04-16T18:02:25.516Z,100.00
2023-04-16T18:04:52.110Z,100.00
2023-04-16T18:07:19.274Z,100.00
2023-04-16T18:09:45.641Z,100.00
2023-04-16T18:12:11.934Z,100.00
2023-04-16T18:14:40.464Z,100.00
2023-04-16T18:17:06.894Z,100.00
2023-04-16T18:19:33.277Z,100.00
2023-04-16T18:21:59.613Z,100.00
2023-04-16T18:24:25.917Z,100.00
2023-04-16T18:29:19.075Z,100.00
2023-04-16T18:31:45.735Z,100.00
2023-04-16T18:34:12.573Z,100.00
2023-04-16T18:36:39.070Z,100.00
2023-04-16T18:39:07.369Z,100.00
2023-04-16T18:41:33.710Z,100.00
2023-04-16T18:44:00.032Z,100.00
2023-04-16T18:46:27.198Z,100.00
2023-04-16T18:48:53.757Z,100.00
2023-04-16T18:51:20.203Z,100.00
2023-04-16T18:53:46.576Z,100.00
2023-04-16T18:56:13.046Z,100.00
2023-04-16T18:58:39.514Z,100.00
2023-04-16T19:01:10.819Z,100.00
2023-04-16T19:03:37.772Z,100.00
2023-04-16T19:06:04.419Z,100.00
2023-04-16T19:08:30.834Z,100.00
2023-04-16T19:10:57.145Z,100.00
2023-04-16T19:13:23.644Z,100.00
2023-04-16T19:15:50.042Z,100.00
2023-04-16T19:18:16.410Z,100.00
2023-04-16T19:20:42.728Z,100.00
2023-04-16T19:23:09.195Z,100.00
2023-04-16T19:25:36.421Z,100.00
2023-04-16T19:28:03.668Z,100.00
2023-04-16T19:30:32.561Z,100.00
2023-04-16T19:32:58.994Z,100.00
2023-04-16T19:35:25.655Z,100.00
2023-04-16T19:37:51.966Z,100.00
2023-04-16T19:40:18.291Z,100.00
2023-04-16T19:42:45.272Z,100.00
2023-04-16T19:45:11.599Z,100.00
2023-04-16T19:47:38.031Z,100.00
2023-04-16T19:50:04.423Z,100.00
2023-04-16T19:52:30.704Z,100.00
2023-04-16T19:54:57.070Z,100.00
2023-04-16T19:57:23.518Z,100.00
2023-04-16T19:59:53.015Z,100.00
2023-04-16T20:02:21.305Z,100.00
2023-04-16T20:04:48.432Z,100.00
2023-04-16T20:07:14.747Z,100.00
2023-04-16T20:09:41.105Z,100.00
2023-04-16T20:12:07.420Z,100.00
2023-04-16T20:14:33.715Z,100.00
2023-04-16T20:17:00.069Z,100.00
2023-04-16T20:19:31.366Z,100.00
2023-04-16T20:21:57.668Z,100.00
2023-04-16T20:24:24.147Z,100.00
2023-04-16T20:26:50.558Z,100.00
2023-04-16T20:29:16.892Z,100.00
2023-04-16T20:31:44.363Z,100.00
2023-04-16T20:34:10.646Z,100.00
2023-04-16T20:36:36.935Z,100.00
2023-04-16T20:39:06.931Z,100.00
2023-04-16T20:41:33.882Z,100.00
2023-04-16T20:44:05.049Z,100.00
2023-04-16T20:46:36.129Z,100.00
2023-04-16T20:49:02.529Z,100.00
2023-04-16T20:51:28.823Z,100.00
2023-04-16T20:53:55.160Z,100.00
2023-04-16T20:56:21.592Z,100.00
2023-04-16T20:58:47.906Z,100.00
2023-04-16T21:01:14.250Z,100.00
2023-04-16T21:03:40.864Z,100.00
2023-04-16T21:06:07.246Z,100.00
2023-04-16T21:08:33.615Z,100.00
2023-04-16T21:11:00.017Z,100.00
2023-04-16T21:13:26.353Z,100.00
2023-04-16T21:15:52.836Z,100.00
2023-04-16T21:18:19.270Z,100.00
2023-04-16T21:20:45.897Z,100.00
2023-04-16T21:23:12.239Z,100.00
2023-04-16T21:25:38.585Z,100.00
2023-04-16T21:28:08.582Z,100.00
2023-04-16T21:30:34.962Z,100.00
2023-04-16T21:33:01.303Z,100.00
2023-04-16T21:35:27.731Z,100.00
2023-04-16T21:37:54.135Z,100.00
2023-04-16T21:40:20.736Z,100.00
2023-04-16T21:42:47.061Z,100.00
2023-04-16T21:45:14.515Z,100.00
2023-04-16T21:47:41.065Z,100.00
2023-04-16T21:50:07.738Z,100.00
2023-04-16T21:52:40.058Z,100.00
2023-04-16T21:55:08.089Z,100.00
2023-04-16T21:57:34.401Z,100.00
2023-04-16T22:00:00.909Z,100.00
2023-04-16T22:02:27.385Z,100.00
2023-04-16T22:04:53.909Z,100.00
2023-04-16T22:07:20.652Z,100.00
2023-04-16T22:09:47.066Z,100.00
2023-04-16T22:12:13.803Z,100.00
2023-04-16T22:14:46.112Z,100.00
2023-04-16T22:17:17.065Z,100.00
2023-04-16T22:19:44.554Z,100.00
2023-04-16T22:22:10.848Z,100.00
2023-04-16T22:24:37.172Z,100.00
2023-04-16T22:27:03.617Z,100.00
2023-04-16T22:29:29.926Z,100.00
2023-04-16T22:32:00.608Z,100.00
2023-04-16T22:34:27.017Z,100.00
2023-04-16T22:36:53.411Z,100.00
2023-04-16T22:39:19.704Z,100.00
2023-04-16T22:41:46.139Z,100.00
2023-04-16T22:44:12.431Z,100.00
2023-04-16T22:46:38.834Z,100.00
2023-04-16T22:49:05.266Z,100.00
2023-04-16T22:51:31.620Z,100.00
2023-04-16T22:53:57.948Z,100.00
2023-04-16T22:56:28.654Z,100.00
2023-04-16T22:58:55.016Z,100.00
2023-04-16T23:01:21.551Z,100.00
2023-04-16T23:03:48.033Z,100.00
2023-04-16T23:06:14.421Z,100.00
2023-04-16T23:08:40.754Z,100.00
2023-04-16T23:11:07.081Z,100.00
2023-04-16T23:13:33.391Z,100.00
2023-04-16T23:15:59.754Z,100.00
2023-04-16T23:18:26.159Z,100.00
2023-04-16T23:20:53.012Z,100.00
2023-04-16T23:23:19.468Z,100.00
2023-04-16T23:25:46.022Z,100.00
2023-04-16T23:28:12.323Z,100.00
2023-04-16T23:30:38.666Z,100.00
2023-04-16T23:33:05.081Z,100.00
2023-04-16T23:35:31.426Z,100.00
2023-04-16T23:37:57.717Z,100.00
2023-04-16T23:40:24.110Z,100.00
2023-04-16T23:42:50.552Z,100.00
2023-04-16T23:45:16.940Z,100.00
2023-04-16T23:47:43.409Z,100.00
2023-04-16T23:50:09.899Z,100.00
2023-04-16T23:52:36.276Z,100.00
2023-04-16T23:55:02.612Z,100.00
2023-04-16T23:57:28.926Z,100.00
2023-04-16T23:59:55.273Z,100.00
